Home > Products > Valid Products > TAF

000
FTUS44 KBRO 221300 AAA
TAFHRL
TAF AMD
KHRL 221345Z 2214/2312 07006KT P6SM SCT030 BKN100
      TEMPO 2214/2216 5SM SHRA BKN030
     FM221800 07015G21KT P6SM SKC
     FM230300 07004KT P6SM FEW030=



000
FTUS44 KBRO 221100 CCA
TAFMFE
TAF COR
KMFE 221158Z 2212/2312 03005KT P6SM VCSH FEW015 SCT060 BKN100
      TEMPO 2212/2214 BKN022
     FM221400 04005KT P6SM FEW035
     FM221900 05012G18KT P6SM SKC
     FM230300 08006KT P6SM FEW035=



000
FTUS44 KBRO 221100
TAFMFE
TAF
KMFE 221122Z 2212/2312 03005KT P6SM VCSH FEW015 SCT060 BKN100
     FM221400 04005KT P6SM FEW035
     FM221900 05012G18KT P6SM SKC
     FM230300 08006KT P6SM FEW035=



000
FTUS44 KBRO 221100
TAFHRL
TAF
KHRL 221122Z 2212/2312 07006KT P6SM VCSH FEW015 SCT060 BKN100
     FM221400 06008KT P6SM FEW035
     FM221800 07015G21KT P6SM SKC
     FM230300 07004KT P6SM FEW030=



000
FTUS44 KBRO 221100
TAFBRO
TAF
KBRO 221122Z 2212/2312 07006KT P6SM VCSH FEW015 SCT060 BKN100
     FM221400 06008KT P6SM FEW035
     FM221800 06012G18KT P6SM SKC
     FM230300 06004KT P6SM FEW030=



000
FTUS44 KBRO 221100
TAFHRL
TAF
KHRL 221120Z 2212/2312 07006KT P6SM VCSH FEW015 SCT060 BKN100
     FM221400 06008KT P6SM FEW035
     FM221800 07015G21KT P6SM SKC
     FM230300 07004KT P6SM FEW030=



000
FTUS44 KBRO 221100
TAFMFE
TAF
KMFE 221120Z 2212/2312 03005KT P6SM VCSH FEW015 SCT060 BKN100
     FM221400 04005KT P6SM FEW035
     FM221900 05012G18KT P6SM SKC
     FM230300 08006KT P6SM FEW035=



000
FTUS44 KBRO 221100
TAFBRO
TAF
KBRO 221120Z 2212/2312 07006KT P6SM VCSH FEW015 SCT060 BKN100
     FM221400 06008KT P6SM FEW035
     FM221800 06012G18KT P6SM SKC
     FM230300 06004KT P6SM FEW030=



000
FTUS44 KBRO 220500 CCA
TAFHRL
TAF COR
KHRL 220555Z 2206/2306 VRB04KT P6SM VCSH FEW030 SCT250
     FM221400 06008KT P6SM SCT035 SCT250
     FM221800 07015G21KT P6SM VCSH SCT035
     FM230300 07004KT P6SM SCT035=



000
FTUS44 KBRO 220500 CCA
TAFBRO
TAF COR
KBRO 220555Z 2206/2306 VRB04KT P6SM VCSH FEW030 SCT250
     FM221400 06008KT P6SM SCT035 SCT250
     FM221800 06012G18KT P6SM VCSH SCT035
     FM230300 06004KT P6SM SCT035=



000
FTUS44 KBRO 220500 CCA
TAFMFE
TAF COR
KMFE 220555Z 2206/2306 09008KT P6SM VCSH FEW030 SCT250
     FM220900 VRB05KT 5SM BR SCT020
     FM221300 04005KT P6SM FEW025 SCT250
     FM221900 05012G18KT P6SM VCSH SCT040
     FM230300 08006KT P6SM SCT035=



000
FTUS44 KBRO 220500 RRA
TAFMFE
TAF
KMFE 220543Z 2206/2306 09008KT P6SM VCSH FEW030 SCT250
     FM220900 VRB05KT 5SM BR SCT020
     FM221300 04005KT P6SM FEW025
     FM221900 05012G18KT P6SM VCSH SCT040=



000
FTUS44 KBRO 220500 RRA
TAFBRO
TAF
KBRO 220543Z 2206/2306 VRB04KT P6SM VCSH FEW030 SCT250
     FM221400 06008KT P6SM SCT035
     FM221800 06012G18KT P6SM VCSH SCT035=



000
FTUS44 KBRO 220500 RRA
TAFHRL
TAF
KHRL 220543Z 2206/2306 VRB04KT P6SM VCSH FEW030 SCT250
     FM221400 06008KT P6SM SCT035
     FM221800 07015G21KT P6SM VCSH SCT035=



000
FTUS44 KBRO 212300
TAFMFE
TAF
KMFE 212323Z 2200/2224 07009KT P6SM FEW030 SCT250
     FM220900 VRB05KT 5SM BR SCT020
     FM221300 02005KT P6SM FEW025
     FM221900 05012G18KT P6SM SCT040=



000
FTUS44 KBRO 212300
TAFHRL
TAF
KHRL 212323Z 2200/2224 07008KT P6SM VCSH FEW025 SCT250
     FM220400 VRB04KT P6SM SCT020
     FM221800 07015G21KT P6SM SCT035=



000
FTUS44 KBRO 212300
TAFBRO
TAF
KBRO 212323Z 2200/2224 08008KT P6SM FEW025 SCT250
     FM220400 VRB04KT P6SM SCT020
     FM221800 06012G18KT P6SM SCT035=



000
FTUS44 KBRO 212100 AAA
TAFMFE
TAF AMD
KMFE 212147Z 2122/2218 05010KT P6SM SCT035 BKN100
     FM220200 08008KT P6SM FEW025 BKN250
     FM221000 02005KT P6SM FEW025 SCT250=



000
FTUS44 KBRO 212000 AAA
TAFHRL
TAF AMD
KHRL 212046Z 2121/2218 04008KT P6SM VCSH SCT020 BKN040
     FM212200 04010KT P6SM SCT035 BKN100
     FM220200 08008KT P6SM FEW025 BKN250
     FM221000 02004KT P6SM FEW025 SCT250=



000
FTUS44 KBRO 212000 AAA
TAFBRO
TAF AMD
KBRO 212045Z 2121/2218 04006KT P6SM VCSH SCT020 BKN040
     FM212200 04010KT P6SM SCT035 BKN100
     FM220200 08008KT P6SM FEW025 BKN250
     FM221000 02004KT P6SM FEW025 SCT250=



000
FTUS44 KBRO 211700
TAFMFE
TAF
KMFE 211725Z 2118/2218 36005KT P6SM VCSH SCT025 BKN050
      TEMPO 2118/2122 2SM +TSRA BKN025CB
     FM212200 04010KT P6SM SCT035 BKN100
     FM220200 08008KT P6SM FEW025 BKN250
     FM221000 02005KT P6SM FEW025 SCT250=



000
FTUS44 KBRO 211700
TAFBRO
TAF
KBRO 211725Z 2118/2218 01006KT P6SM VCSH SCT020 BKN040
      TEMPO 2118/2121 3SM TSRA BKN020CB
     FM212100 04010KT P6SM SCT035 BKN100
     FM220200 08008KT P6SM FEW025 BKN250
     FM221000 02004KT P6SM FEW025 SCT250=



000
FTUS44 KBRO 211700
TAFHRL
TAF
KHRL 211725Z 2118/2218 35007KT P6SM VCSH SCT020 BKN040
      TEMPO 2118/2121 4SM TSRA BKN020CB
     FM212100 04010KT P6SM SCT035 BKN100
     FM220200 08008KT P6SM FEW025 BKN250
     FM221000 02004KT P6SM FEW025 SCT250=



000
FTUS44 KBRO 211600 AAA
TAFMFE
TAF AMD
KMFE 211615Z 2116/2212 36005KT P6SM FEW018 SCT023 SCT050
     FM211800 01008KT P6SM VCSH SCT025 BKN050
      TEMPO 2118/2122 2SM +TSRA BKN020CB
     FM212200 04010KT P6SM SCT035 BKN100
     FM220200 08008KT P6SM FEW025 BKN250=



000
FTUS44 KBRO 211600 AAA
TAFHRL
TAF AMD
KHRL 211615Z 2116/2212 35007KT P6SM VCSH SCT020 BKN040
      TEMPO 2117/2120 4SM TSRA BKN020CB
     FM212100 04010KT P6SM SCT035 BKN100
     FM220200 08008KT P6SM FEW025 BKN250=



000
FTUS44 KBRO 211600 AAA
TAFBRO
TAF AMD
KBRO 211615Z 2116/2212 34004KT P6SM VCSH SCT020 BKN040
      TEMPO 2117/2120 3SM TSRA BKN020CB
     FM212100 04010KT P6SM SCT035 BKN100
     FM220200 08008KT P6SM FEW025 BKN250=



000
FTUS44 KBRO 211100
TAFHRL
TAF
KHRL 211133Z 2112/2212 34003KT P6SM VCSH SCT035
     FM211600 VRB06KT P6SM VCTS SCT035CB BKN150
     FM212100 08009KT P6SM SCT035=



000
FTUS44 KBRO 211100
TAFBRO
TAF
KBRO 211133Z 2112/2212 34003KT P6SM VCSH SCT035 SCT080
     FM211600 08006KT P6SM VCTS SCT035CB
     FM220000 08010KT P6SM SCT035=



000
FTUS44 KBRO 211100
TAFMFE
TAF
KMFE 211133Z 2112/2212 01003KT P6SM VCSH SCT035
     FM211500 07010KT P6SM VCTS SCT040CB BKN100
     FM212200 08009KT P6SM SCT035=



000
FTUS44 KBRO 210500
TAFBRO
TAF
KBRO 210522Z 2106/2206 00000KT P6SM VCSH SCT035 BKN150
      TEMPO 2110/2113 4SM BR
     FM211400 08006KT P6SM VCSH SCT035
     FM211800 08010KT P6SM VCTS SCT035CB BKN100
     FM212200 08010KT P6SM SCT035=



000
FTUS44 KBRO 210500
TAFMFE
TAF
KMFE 210522Z 2106/2206 00000KT P6SM VCSH SCT035
      TEMPO 2109/2112 4SM BR
     FM211700 07010KT P6SM VCTS SCT040CB BKN100
     FM212300 08009KT P6SM SCT035=



000
FTUS44 KBRO 210500
TAFHRL
TAF
KHRL 210522Z 2106/2206 00000KT P6SM VCSH SCT035
      TEMPO 2109/2112 4SM BR
     FM211400 VRB06KT P6SM VCSH SCT020 BKN150
     FM211800 08012KT P6SM VCTS SCT035CB BKN100
     FM212200 08009KT P6SM SCT035=



000
FTUS44 KBRO 202300
TAFMFE
TAF
KMFE 202325Z 2100/2124 10007KT P6SM VCSH SCT035
     FM210200 VRB06KT P6SM SCT020 BKN150
     FM211700 07010KT P6SM VCTS SCT040CB BKN100=



000
FTUS44 KBRO 202300
TAFHRL
TAF
KHRL 202325Z 2100/2124 VRB06KT P6SM VCSH SCT035
     FM210200 VRB06KT P6SM SCT020 BKN150
     FM211100 VRB06KT P6SM VCSH SCT020 BKN150
     FM211800 08012KT P6SM VCTS SCT035CB BKN100=



000
FTUS44 KBRO 202300
TAFBRO
TAF
KBRO 202325Z 2100/2124 VRB06KT P6SM VCSH SCT035 BKN150
     FM210200 VRB06KT P6SM SCT020 BKN150
     FM211100 VRB06KT P6SM VCSH SCT020 BKN150
     FM211800 08010KT P6SM VCTS SCT035CB BKN100=



000
FTUS44 KBRO 202100 AAA
TAFHRL
TAF AMD
KHRL 202158Z 2022/2118 09010KT P6SM VCTS BKN035CB OVC250
      TEMPO 2022/2024 4SM TSRA BKN025CB
     FM210000 12005KT P6SM VCSH SCT030 OVC250
      TEMPO 2100/2103 -SHRA BKN030
     FM211200 02003KT P6SM BKN250=



000
FTUS44 KBRO 202100 AAA
TAFMFE
TAF AMD
KMFE 202157Z 2022/2118 11006KT P6SM VCTS SCT040CB BKN250
      TEMPO 2022/2024 4SM TSRA BKN025CB
     FM210000 10005KT P6SM VCSH SCT030 OVC250
      TEMPO 2100/2103 -SHRA BKN030
     FM210700 03003KT P6SM BKN250=



000
FTUS44 KBRO 202100 AAA
TAFBRO
TAF AMD
KBRO 202156Z 2022/2118 16008KT P6SM VCSH SCT030 BKN250
      TEMPO 2022/2101 -SHRA BKN030
     FM210600 13003KT P6SM OVC250
     FM211200 02006KT P6SM BKN250=



000
FTUS44 KBRO 201800 AAB
TAFBRO
TAF AMD
KBRO 201840Z 2019/2118 16008KT P6SM VCTS SCT030CB BKN040 OVC090
      TEMPO 2019/2022 6SM +TSRA BKN025CB
     FM210000 12005KT P6SM VCSH SCT030 OVC250
      TEMPO 2100/2103 -SHRA BKN030
     FM210600 13003KT P6SM OVC250
     FM211200 02006KT P6SM BKN250=



000
FTUS44 KBRO 201800 AAA
TAFBRO
TAF AMD
KBRO 201839Z 2019/2118 16008KT P6SM VCTS SCT030CB BKN040 OVC090
      TEMPO 2018/2022 2SM +TSRA BKN025CB
     FM210000 12005KT P6SM VCSH SCT030 OVC250
      TEMPO 2100/2103 -SHRA BKN030
     FM210600 13003KT P6SM OVC250
     FM211200 02006KT P6SM BKN250=



000
FTUS44 KBRO 201700
TAFMFE
TAF
KMFE 201720Z 2018/2118 11006KT P6SM VCTS SCT040CB BKN250
      TEMPO 2018/2022 4SM +TSRA BKN025CB
     FM210000 10005KT P6SM VCSH SCT030 OVC250
      TEMPO 2100/2103 -SHRA BKN030
     FM210700 03003KT P6SM BKN250=



000
FTUS44 KBRO 201700
TAFHRL
TAF
KHRL 201720Z 2018/2118 09012KT P6SM VCTS BKN030CB OVC250
      TEMPO 2018/2022 4SM +TSRA BKN025CB
     FM210000 12005KT P6SM VCSH SCT030 OVC250
      TEMPO 2100/2103 -SHRA BKN030
     FM211200 02003KT P6SM BKN250=



000
FTUS44 KBRO 201700
TAFBRO
TAF
KBRO 201720Z 2018/2118 16008KT P6SM VCTS SCT030CB BKN040 OVC090
      TEMPO 2018/2022 5SM +TSRA BKN025CB
     FM210000 12005KT P6SM VCSH SCT030 OVC250
      TEMPO 2100/2103 -SHRA BKN030
     FM210600 13003KT P6SM OVC250
     FM211200 02006KT P6SM BKN250=



000
FTUS44 KBRO 201400 AAA
TAFBRO
TAF AMD
KBRO 201403Z 2014/2112 14006KT P6SM VCSH SCT030 OVC250
      TEMPO 2014/2018 5SM -TSRA BKN020CB
     FM201800 11008KT P6SM VCTS SCT025CB BKN250
      TEMPO 2018/2022 5SM -TSRA BKN020CB
     FM210000 10005KT P6SM VCSH SCT030 OVC250
     FM210600 30003KT P6SM BKN250=



000
FTUS44 KBRO 201300 AAA
TAFHRL
TAF AMD
KHRL 201400Z 2014/2112 12006KT P6SM VCSH BKN040 OVC250
      TEMPO 2015/2018 3SM -TSRA BKN020CB
     FM201800 11008KT P6SM VCTS SCT025CB BKN250
      TEMPO 2018/2022 3SM -TSRA BKN020CB
     FM210000 10005KT P6SM VCSH SCT030 OVC250
     FM210600 30003KT P6SM BKN250=



000
FTUS44 KBRO 201300 AAA
TAFMFE
TAF AMD
KMFE 201354Z 2014/2112 08003KT 6SM BR VCSH FEW020 SCT050
      TEMPO 2014/2018 -SHRA SCT040
     FM201800 11008KT P6SM VCSH SCT040 BKN250
      TEMPO 2018/2022 3SM -TSRA BKN020CB
     FM210000 10005KT P6SM VCSH SCT030 OVC250
     FM210600 30003KT P6SM BKN250=



000
FTUS44 KBRO 201100
TAFMFE
TAF
KMFE 201130Z 2012/2112 08003KT P6SM VCSH BKN250
     FM201800 11008KT P6SM VCSH SCT030 BKN250
      TEMPO 2018/2022 3SM -TSRA BKN020CB
     FM210000 10005KT P6SM VCSH SCT030 OVC250 PROB30 2100/2106 P6SM
      -SHRA BKN025
     FM210600 30003KT P6SM BKN250=



000
FTUS44 KBRO 201100
TAFHRL
TAF
KHRL 201130Z 2012/2112 08006KT P6SM VCSH SCT040 OVC100
     FM201500 13006KT P6SM VCTS BKN030CB OVC250
      TEMPO 2015/2018 3SM -TSRA BKN020CB
     FM201800 11008KT P6SM VCTS SCT025CB BKN250
      TEMPO 2018/2022 3SM -TSRA BKN020CB
     FM210000 10005KT P6SM VCSH SCT030 OVC250 PROB30 2100/2106 P6SM
      -SHRA BKN025
     FM210600 30003KT P6SM BKN250=



000
FTUS44 KBRO 201100
TAFBRO
TAF
KBRO 201130Z 2012/2112 00000KT P6SM VCSH SCT040 BKN150
     FM201500 13006KT P6SM VCTS BKN030CB OVC250
      TEMPO 2015/2018 3SM -TSRA BKN020CB
     FM201800 11008KT P6SM VCTS SCT025CB BKN250
      TEMPO 2018/2022 5SM -TSRA BKN020CB
     FM210000 10005KT P6SM VCSH SCT030 OVC250 PROB30 2100/2106 P6SM
      -SHRA BKN025
     FM210600 30003KT P6SM BKN250=



000
FTUS44 KBRO 200900 AAA
TAFHRL
TAF AMD
KHRL 200944Z 2010/2106 08006KT P6SM OVC100
     FM201500 13006KT P6SM VCSH BKN020 OVC250
      TEMPO 2015/2018 5SM -TSRA BKN015CB
     FM201800 11008KT P6SM VCSH SCT030 BKN250
      TEMPO 2018/2022 5SM -TSRA BKN015CB
     FM210000 10005KT P6SM VCSH SCT030 OVC250 PROB30 2100/2106 P6SM
      -SHRA BKN025=



000
FTUS44 KBRO 200800 AAA
TAFMFE
TAF AMD
KMFE 200827Z 2008/2106 10004KT P6SM OVC090
      TEMPO 2008/2012 5SM BR BKN025
     FM201200 13006KT P6SM VCTS BKN020CB OVC250
      TEMPO 2012/2016 5SM -TSRA BKN015CB
     FM201800 11008KT P6SM VCSH SCT030 BKN250
      TEMPO 2018/2022 5SM -TSRA BKN015CB
     FM210000 10005KT P6SM VCSH SCT030 OVC250 PROB30 2100/2106 P6SM
      -SHRA BKN025=



000
FTUS44 KBRO 200800 AAA
TAFBRO
TAF AMD
KBRO 200827Z 2008/2106 00000KT P6SM VCSH SCT030 OVC100
     FM201500 13006KT P6SM VCSH BKN020 OVC250
      TEMPO 2015/2018 5SM -TSRA BKN015CB
     FM201800 11008KT P6SM VCSH SCT030 BKN250
      TEMPO 2018/2022 5SM -TSRA BKN015CB
     FM210000 10005KT P6SM VCSH SCT030 OVC250 PROB30 2100/2106 P6SM
      -SHRA BKN025=



000
FTUS44 KBRO 200600 CCA
TAFBRO
TAF COR
KBRO 200610Z 2006/2106 09003KT P6SM FEW017 OVC080
      TEMPO 2006/2010 BKN017
     FM201500 13006KT P6SM VCSH BKN020 OVC250
      TEMPO 2015/2018 5SM -TSRA BKN015CB
     FM201800 11008KT P6SM VCSH SCT030 BKN250
      TEMPO 2018/2022 5SM -TSRA BKN015CB
     FM210000 10005KT P6SM VCSH SCT030 OVC250 PROB30 2100/2106 P6SM
      -SHRA BKN025=



000
FTUS44 KBRO 200500
TAFBRO
TAF
KBRO 200536Z 2006/2106 15004KT P6SM BKN017
     FM201500 13006KT P6SM VCSH BKN020 OVC250
      TEMPO 2015/2018 5SM -TSRA BKN015CB
     FM201800 11008KT P6SM VCSH SCT030 BKN250
      TEMPO 2018/2022 5SM -TSRA BKN015CB
     FM210000 10005KT P6SM VCSH SCT030 OVC250 PROB30 2100/2106 P6SM
      -SHRA BKN025=



000
FTUS44 KBRO 200500
TAFHRL
TAF
KHRL 200536Z 2006/2106 15003KT P6SM SCT017
      TEMPO 2006/2010 BKN017
     FM201500 13006KT P6SM VCSH BKN020 OVC250
      TEMPO 2015/2018 5SM -TSRA BKN015CB
     FM201800 11008KT P6SM VCSH SCT030 BKN250
      TEMPO 2018/2022 5SM -TSRA BKN015CB
     FM210000 10005KT P6SM VCSH SCT030 OVC250 PROB30 2100/2106 P6SM
      -SHRA BKN025=



000
FTUS44 KBRO 200500
TAFMFE
TAF
KMFE 200536Z 2006/2106 11004KT 6SM BR SCT019 BKN027
      TEMPO 2006/2010 4SM BR BKN015
     FM201200 13006KT P6SM VCTS BKN020CB OVC250
      TEMPO 2012/2016 5SM -TSRA BKN015CB
     FM201800 11008KT P6SM VCSH SCT030 BKN250
      TEMPO 2018/2022 5SM -TSRA BKN015CB
     FM210000 10005KT P6SM VCSH SCT030 OVC250 PROB30 2100/2106 P6SM
      -SHRA BKN025=



000
FTUS44 KBRO 200400 AAC
TAFMFE
TAF AMD
KMFE 200459Z 2005/2024 12003KT 5SM BR SCT019
      TEMPO 2005/2009 4SM BR
     FM201800 14010G15KT P6SM VCSH SCT030=



000
FTUS44 KBRO 200300 AAB
TAFMFE
TAF AMD
KMFE 200356Z 2004/2024 12006KT P6SM SCT020 BKN150
      TEMPO 2008/2012 4SM BR
     FM201800 14010G15KT P6SM VCSH SCT030=



000
FTUS44 KBRO 200000 AAA
TAFMFE
TAF AMD
KMFE 200024Z 2000/2024 12010KT P6SM VCTS SCT035CB
      TEMPO 2000/2001 1/2SM +TSRA BKN018CB
     FM200200 12006KT P6SM SCT020 BKN150
      TEMPO 2008/2012 4SM BR
     FM201800 14010G15KT P6SM VCSH SCT030=



000
FTUS44 KBRO 192300
TAFMFE
TAF
KMFE 192325Z 2000/2024 12010KT P6SM VCTS SCT035CB
      TEMPO 2000/2001 2SM -TSRA BKN025CB
     FM200200 12006KT P6SM SCT020 BKN150
      TEMPO 2008/2012 4SM BR
     FM201800 14010G15KT P6SM VCSH SCT030=



000
FTUS44 KBRO 192300
TAFBRO
TAF
KBRO 192325Z 2000/2024 12012KT P6SM SCT030
     FM200200 13006KT P6SM SCT020 BKN150
     FM201800 15010KT P6SM VCSH SCT030=



000
FTUS44 KBRO 192300
TAFHRL
TAF
KHRL 192325Z 2000/2024 13012G17KT P6SM SCT030
     FM200200 13006KT P6SM SCT020 BKN150
     FM201800 15010G15KT P6SM SCT030=



000
FTUS44 KBRO 192000 AAA
TAFBRO
TAF AMD
KBRO 192002Z 1920/2018 16012KT P6SM VCSH SCT040 BKN050
      TEMPO 1920/1923 6SM -TSRA BKN025CB
     FM200000 12008KT P6SM VCSH SCT040 BKN200
     FM200400 15006KT P6SM FEW060
     FM200900 15003KT P6SM SCT100 SCT200
     FM201700 15010G15KT P6SM SCT030=



000
FTUS44 KBRO 191800 CCA
TAFBRO
TAF COR
KBRO 191800Z 1918/2018 16011G18KT P6SM VCTS BKN030CB BKN050
      TEMPO 1918/1922 6SM -TSRA BKN025CB
     FM200000 12008KT P6SM VCSH SCT040 BKN200
     FM200400 15006KT P6SM FEW060
     FM200900 15003KT P6SM SCT100 SCT200
     FM201700 15010G15KT P6SM SCT030=



000
FTUS44 KBRO 191700
TAFHRL
TAF
KHRL 191728Z 1918/2018 16010G15KT P6SM VCSH SCT030 BKN040
      TEMPO 1919/1923 6SM -TSRA BKN025CB
     FM200000 12009KT P6SM VCSH SCT040 BKN200
     FM200400 13006KT P6SM FEW060 SCT200
     FM201700 15010KT P6SM SCT030=



000
FTUS44 KBRO 191700
TAFBRO
TAF
KBRO 191728Z 1918/2018 15011G18KT P6SM VCSH SCT030 BKN050
      TEMPO 1918/1922 6SM -TSRA BKN025CB
     FM200000 12008KT P6SM VCSH SCT040 BKN200
     FM200400 15006KT P6SM FEW060
     FM200900 15003KT P6SM SCT100 SCT200
     FM201700 15010G15KT P6SM SCT030=



000
FTUS44 KBRO 191700
TAFMFE
TAF
KMFE 191728Z 1918/2018 16012G18KT P6SM VCSH FEW030 BKN050
      TEMPO 1920/1924 6SM -TSRA BKN025CB
     FM200000 12009KT P6SM VCSH SCT040 BKN200
     FM200400 13006KT P6SM FEW060
     FM200900 15003KT P6SM SCT100 SCT200
     FM201700 13010KT P6SM SCT030=



000
FTUS44 KBRO 191500 AAB
TAFMFE
TAF AMD
KMFE 191501Z 1915/2012 14010KT P6SM BKN020
     FM191800 15011KT P6SM VCSH BKN050
     FM200000 12009KT P6SM OVC250
     FM200400 13006KT P6SM SCT050
     FM200900 15003KT P6SM SCT100 SCT250=



000
FTUS44 KBRO 191400 AAA
TAFBRO
TAF AMD
KBRO 191446Z 1915/2012 14010KT P6SM VCSH FEW020 SCT030
     FM191800 15011KT P6SM VCSH BKN050
     FM200000 12009KT P6SM OVC250
     FM200400 13006KT P6SM SCT050
     FM200900 15003KT P6SM SCT100 SCT250=



    US Dept of Commerce
    National Oceanic and Atmospheric Administration
    National Weather Service
    1325 East West Highway
    Silver Spring, MD 20910
    Page Author: NWS Internet Services Team
Disclaimer
Information Quality
Credits
Glossary
Privacy Policy
Freedom of Information Act (FOIA)
About Us
Career Opportunities